createdAt,value
2022-10-08T00:08:16.195Z,20.80
2022-10-08T00:23:16.231Z,19.20
2022-10-08T00:38:16.382Z,22.10
2022-10-08T00:53:16.491Z,17.60
2022-10-08T01:08:16.615Z,18.40
2022-10-08T01:23:16.721Z,19.00
2022-10-08T01:38:16.978Z,18.40
2022-10-08T01:53:17.044Z,15.10
2022-10-08T02:08:17.101Z,15.60
2022-10-08T02:23:17.219Z,23.40
2022-10-08T02:38:17.364Z,15.50
2022-10-08T02:53:17.474Z,15.40
2022-10-08T03:08:18.102Z,17.90
2022-10-08T03:23:18.182Z,15.90
2022-10-08T03:38:18.261Z,17.00
2022-10-08T03:53:18.416Z,20.30
2022-10-08T04:08:18.516Z,15.80
2022-10-08T04:23:18.635Z,17.00
2022-10-08T04:38:18.755Z,15.20
2022-10-08T04:53:18.866Z,15.60
2022-10-08T05:08:18.989Z,16.50
2022-10-08T05:23:20.393Z,12.80
2022-10-08T05:38:20.983Z,21.90
2022-10-08T05:53:21.072Z,22.30
2022-10-08T06:08:21.432Z,19.60
2022-10-08T06:23:21.933Z,21.70
2022-10-08T06:38:22.308Z,22.60
2022-10-08T06:53:22.427Z,10.30
2022-10-08T07:08:22.371Z,16.10
2022-10-08T07:23:22.925Z,9.50
2022-10-08T08:14:51.864Z,18.80
2022-10-08T08:29:51.946Z,12.80
2022-10-08T08:44:52.050Z,10.70
2022-10-08T08:59:52.187Z,10.10
2022-10-08T09:14:52.273Z,10.30
2022-10-08T09:29:52.457Z,9.80
2022-10-08T09:44:52.526Z,7.00
2022-10-08T09:59:52.674Z,10.10
2022-10-08T10:14:53.230Z,16.20
2022-10-08T10:29:53.833Z,8.00
2022-10-08T10:44:54.438Z,11.60
2022-10-08T10:59:55.029Z,39.50
2022-10-08T11:14:55.173Z,4.90
2022-10-08T11:29:55.209Z,7.50
2022-10-08T11:44:55.321Z,5.00
2022-10-08T11:59:55.442Z,15.50
2022-10-08T12:14:55.575Z,6.40
2022-10-08T12:29:55.674Z,6.30
2022-10-08T12:44:56.306Z,8.30
2022-10-08T12:59:56.861Z,7.90
2022-10-08T13:14:57.006Z,7.50
2022-10-08T13:29:57.105Z,8.00
2022-10-08T13:44:57.207Z,3.90
2022-10-08T13:59:57.283Z,6.20
2022-10-08T14:14:57.545Z,8.50
2022-10-08T14:29:57.516Z,4.80
2022-10-08T14:44:57.614Z,10.00
2022-10-08T14:59:57.662Z,3.90
2022-10-08T15:14:57.769Z,3.20
2022-10-08T15:29:57.892Z,3.00
2022-10-08T15:44:57.991Z,1.40
2022-10-08T15:59:58.100Z,0.90
2022-10-08T16:14:58.215Z,2.60
2022-10-08T16:29:58.275Z,1.20
2022-10-08T16:44:58.881Z,2.50
2022-10-08T16:59:59.008Z,3.50
2022-10-08T17:14:59.107Z,2.70
2022-10-08T17:29:59.209Z,4.40
2022-10-08T17:44:59.353Z,6.00
2022-10-08T17:59:59.418Z,4.00
2022-10-08T18:15:00.020Z,9.90
2022-10-08T18:30:00.603Z,5.90
2022-10-08T18:45:00.748Z,5.90
2022-10-08T19:00:01.379Z,4.00
2022-10-08T19:15:01.456Z,6.30
2022-10-08T19:30:01.561Z,2.80
2022-10-08T19:45:01.676Z,5.50
2022-10-08T20:00:01.797Z,3.80
2022-10-08T20:15:02.461Z,5.10
2022-10-08T20:30:02.554Z,6.80
2022-10-08T20:45:02.700Z,4.10
2022-10-08T21:00:02.770Z,4.10
2022-10-08T21:15:02.875Z,7.20
2022-10-08T21:30:02.988Z,5.50
2022-10-08T21:45:03.109Z,7.00
2022-10-08T22:00:03.248Z,5.20
2022-10-08T22:15:03.852Z,7.20
2022-10-08T22:30:03.964Z,5.80
2022-10-08T22:45:04.193Z,5.20
2022-10-08T23:00:04.208Z,4.50
2022-10-08T23:15:04.322Z,6.70
2022-10-08T23:30:04.512Z,9.10
2022-10-08T23:45:04.512Z,6.80
